sensor_id;sensor_type;location;lat;lon;timestamp;P1;durP1;ratioP1;P2;durP2;ratioP2
3417;SDS011;68007;51.312;12.372;2023-04-03T00:02:05;4.40;;;2.27;;
3417;SDS011;68007;51.312;12.372;2023-04-03T00:04:32;12.07;;;1.90;;
3417;SDS011;68007;51.312;12.372;2023-04-03T00:07:00;7.10;;;2.00;;
3417;SDS011;68007;51.312;12.372;2023-04-03T00:09:29;5.33;;;1.83;;
3417;SDS011;68007;51.312;12.372;2023-04-03T00:11:56;10.10;;;2.17;;
3417;SDS011;68007;51.312;12.372;2023-04-03T00:14:24;5.27;;;1.77;;
3417;SDS011;68007;51.312;12.372;2023-04-03T00:16:51;4.30;;;1.57;;
3417;SDS011;68007;51.312;12.372;2023-04-03T00:19:19;2.00;;;1.50;;
3417;SDS011;68007;51.312;12.372;2023-04-03T00:21:46;8.73;;;1.97;;
3417;SDS011;68007;51.312;12.372;2023-04-03T00:24:14;2.77;;;1.67;;
3417;SDS011;68007;51.312;12.372;2023-04-03T00:26:43;5.57;;;1.53;;
3417;SDS011;68007;51.312;12.372;2023-04-03T00:29:10;4.50;;;2.00;;
3417;SDS011;68007;51.312;12.372;2023-04-03T00:31:37;9.93;;;2.40;;
3417;SDS011;68007;51.312;12.372;2023-04-03T00:34:05;5.03;;;1.60;;
3417;SDS011;68007;51.312;12.372;2023-04-03T00:36:33;7.90;;;1.60;;
3417;SDS011;68007;51.312;12.372;2023-04-03T00:39:01;12.90;;;2.87;;
3417;SDS011;68007;51.312;12.372;2023-04-03T00:41:28;4.93;;;1.77;;
3417;SDS011;68007;51.312;12.372;2023-04-03T00:43:57;6.43;;;2.07;;
3417;SDS011;68007;51.312;12.372;2023-04-03T00:46:24;6.47;;;1.60;;
3417;SDS011;68007;51.312;12.372;2023-04-03T00:48:52;4.17;;;1.47;;
3417;SDS011;68007;51.312;12.372;2023-04-03T00:51:20;8.10;;;2.00;;
3417;SDS011;68007;51.312;12.372;2023-04-03T00:53:52;3.40;;;1.87;;
3417;SDS011;68007;51.312;12.372;2023-04-03T00:56:23;6.53;;;1.83;;
3417;SDS011;68007;51.312;12.372;2023-04-03T00:58:54;8.60;;;2.10;;
3417;SDS011;68007;51.312;12.372;2023-04-03T01:01:26;3.00;;;1.77;;
3417;SDS011;68007;51.312;12.372;2023-04-03T01:03:55;6.33;;;2.70;;
3417;SDS011;68007;51.312;12.372;2023-04-03T01:06:24;6.50;;;1.70;;
3417;SDS011;68007;51.312;12.372;2023-04-03T01:08:56;6.27;;;1.90;;
3417;SDS011;68007;51.312;12.372;2023-04-03T01:11:24;6.70;;;2.07;;
3417;SDS011;68007;51.312;12.372;2023-04-03T01:13:52;5.37;;;1.93;;
3417;SDS011;68007;51.312;12.372;2023-04-03T01:16:21;4.80;;;2.10;;
3417;SDS011;68007;51.312;12.372;2023-04-03T01:18:48;10.43;;;2.57;;
3417;SDS011;68007;51.312;12.372;2023-04-03T01:24:12;6.53;;;1.77;;
3417;SDS011;68007;51.312;12.372;2023-04-03T01:26:52;6.23;;;2.00;;
3417;SDS011;68007;51.312;12.372;2023-04-03T01:29:19;6.57;;;2.07;;
3417;SDS011;68007;51.312;12.372;2023-04-03T01:31:52;6.27;;;1.90;;
3417;SDS011;68007;51.312;12.372;2023-04-03T01:34:21;5.00;;;1.97;;
3417;SDS011;68007;51.312;12.372;2023-04-03T01:36:49;3.20;;;1.63;;
3417;SDS011;68007;51.312;12.372;2023-04-03T01:39:17;5.10;;;1.87;;
3417;SDS011;68007;51.312;12.372;2023-04-03T01:41:45;7.40;;;1.80;;
3417;SDS011;68007;51.312;12.372;2023-04-03T01:44:13;3.23;;;1.50;;
3417;SDS011;68007;51.312;12.372;2023-04-03T01:46:41;3.83;;;1.73;;
3417;SDS011;68007;51.312;12.372;2023-04-03T01:49:10;5.37;;;1.87;;
3417;SDS011;68007;51.312;12.372;2023-04-03T01:51:37;6.07;;;1.93;;
3417;SDS011;68007;51.312;12.372;2023-04-03T01:54:05;8.37;;;2.33;;
3417;SDS011;68007;51.312;12.372;2023-04-03T01:56:32;7.70;;;1.77;;
3417;SDS011;68007;51.312;12.372;2023-04-03T01:59:00;7.70;;;1.80;;
3417;SDS011;68007;51.312;12.372;2023-04-03T02:01:28;8.23;;;2.17;;
3417;SDS011;68007;51.312;12.372;2023-04-03T02:03:55;3.90;;;1.70;;
3417;SDS011;68007;51.312;12.372;2023-04-03T02:06:24;6.17;;;1.67;;
3417;SDS011;68007;51.312;12.372;2023-04-03T02:08:52;10.77;;;2.23;;
3417;SDS011;68007;51.312;12.372;2023-04-03T02:11:19;6.60;;;1.80;;
3417;SDS011;68007;51.312;12.372;2023-04-03T02:13:47;6.57;;;2.07;;
3417;SDS011;68007;51.312;12.372;2023-04-03T02:16:14;8.90;;;2.27;;
3417;SDS011;68007;51.312;12.372;2023-04-03T02:18:42;7.30;;;2.23;;
3417;SDS011;68007;51.312;12.372;2023-04-03T02:21:09;4.27;;;1.50;;
3417;SDS011;68007;51.312;12.372;2023-04-03T02:23:38;5.40;;;1.77;;
3417;SDS011;68007;51.312;12.372;2023-04-03T02:26:06;6.00;;;1.60;;
3417;SDS011;68007;51.312;12.372;2023-04-03T02:28:34;6.00;;;2.07;;
3417;SDS011;68007;51.312;12.372;2023-04-03T02:31:03;4.57;;;1.73;;
3417;SDS011;68007;51.312;12.372;2023-04-03T02:33:32;8.10;;;1.90;;
3417;SDS011;68007;51.312;12.372;2023-04-03T02:35:59;4.63;;;1.50;;
3417;SDS011;68007;51.312;12.372;2023-04-03T02:38:27;8.20;;;2.13;;
3417;SDS011;68007;51.312;12.372;2023-04-03T02:41:00;4.70;;;1.90;;
3417;SDS011;68007;51.312;12.372;2023-04-03T02:43:28;6.03;;;1.87;;
3417;SDS011;68007;51.312;12.372;2023-04-03T02:45:56;6.67;;;1.83;;
3417;SDS011;68007;51.312;12.372;2023-04-03T02:48:23;7.67;;;2.00;;
3417;SDS011;68007;51.312;12.372;2023-04-03T02:50:51;6.57;;;1.60;;
3417;SDS011;68007;51.312;12.372;2023-04-03T02:53:19;5.93;;;1.93;;
3417;SDS011;68007;51.312;12.372;2023-04-03T02:55:47;6.23;;;1.97;;
3417;SDS011;68007;51.312;12.372;2023-04-03T02:58:16;7.83;;;1.90;;
3417;SDS011;68007;51.312;12.372;2023-04-03T03:00:43;5.30;;;1.83;;
3417;SDS011;68007;51.312;12.372;2023-04-03T03:03:11;5.57;;;1.77;;
3417;SDS011;68007;51.312;12.372;2023-04-03T03:05:39;6.20;;;1.97;;
3417;SDS011;68007;51.312;12.372;2023-04-03T03:08:06;9.40;;;2.00;;
3417;SDS011;68007;51.312;12.372;2023-04-03T03:10:34;7.30;;;1.67;;
3417;SDS011;68007;51.312;12.372;2023-04-03T03:13:01;3.47;;;1.70;;
3417;SDS011;68007;51.312;12.372;2023-04-03T03:15:30;4.50;;;2.10;;
3417;SDS011;68007;51.312;12.372;2023-04-03T03:17:58;7.90;;;1.90;;
3417;SDS011;68007;51.312;12.372;2023-04-03T03:20:26;6.10;;;2.60;;
3417;SDS011;68007;51.312;12.372;2023-04-03T03:22:53;6.23;;;1.90;;
3417;SDS011;68007;51.312;12.372;2023-04-03T03:25:21;8.03;;;2.23;;
3417;SDS011;68007;51.312;12.372;2023-04-03T03:27:48;4.43;;;1.90;;
3417;SDS011;68007;51.312;12.372;2023-04-03T03:30:16;4.97;;;1.90;;
3417;SDS011;68007;51.312;12.372;2023-04-03T03:32:44;4.17;;;1.80;;
3417;SDS011;68007;51.312;12.372;2023-04-03T03:35:12;4.77;;;1.73;;
3417;SDS011;68007;51.312;12.372;2023-04-03T03:37:40;5.10;;;2.03;;
3417;SDS011;68007;51.312;12.372;2023-04-03T03:40:08;7.00;;;2.60;;
3417;SDS011;68007;51.312;12.372;2023-04-03T03:42:38;6.13;;;2.40;;
3417;SDS011;68007;51.312;12.372;2023-04-03T03:45:06;7.50;;;1.90;;
3417;SDS011;68007;51.312;12.372;2023-04-03T03:47:34;5.73;;;1.97;;
3417;SDS011;68007;51.312;12.372;2023-04-03T03:50:04;4.97;;;1.87;;
3417;SDS011;68007;51.312;12.372;2023-04-03T03:52:32;5.87;;;2.47;;
3417;SDS011;68007;51.312;12.372;2023-04-03T03:55:00;7.23;;;2.13;;
3417;SDS011;68007;51.312;12.372;2023-04-03T03:57:27;4.07;;;1.80;;
3417;SDS011;68007;51.312;12.372;2023-04-03T03:59:56;6.67;;;1.77;;
3417;SDS011;68007;51.312;12.372;2023-04-03T04:02:23;7.80;;;2.20;;
3417;SDS011;68007;51.312;12.372;2023-04-03T04:04:51;4.73;;;2.23;;
3417;SDS011;68007;51.312;12.372;2023-04-03T04:07:20;4.97;;;1.80;;
3417;SDS011;68007;51.312;12.372;2023-04-03T04:09:47;5.83;;;2.30;;
3417;SDS011;68007;51.312;12.372;2023-04-03T04:12:15;7.60;;;1.67;;
3417;SDS011;68007;51.312;12.372;2023-04-03T04:14:43;5.23;;;1.93;;
3417;SDS011;68007;51.312;12.372;2023-04-03T04:17:12;8.10;;;2.10;;
3417;SDS011;68007;51.312;12.372;2023-04-03T04:19:40;4.13;;;1.97;;
3417;SDS011;68007;51.312;12.372;2023-04-03T04:22:07;5.13;;;2.00;;
3417;SDS011;68007;51.312;12.372;2023-04-03T04:24:36;4.80;;;1.73;;
3417;SDS011;68007;51.312;12.372;2023-04-03T04:27:03;6.77;;;2.50;;
3417;SDS011;68007;51.312;12.372;2023-04-03T04:29:31;4.67;;;1.80;;
3417;SDS011;68007;51.312;12.372;2023-04-03T04:32:01;7.07;;;2.77;;
3417;SDS011;68007;51.312;12.372;2023-04-03T04:34:29;6.40;;;2.10;;
3417;SDS011;68007;51.312;12.372;2023-04-03T04:36:56;5.80;;;1.97;;
3417;SDS011;68007;51.312;12.372;2023-04-03T04:39:24;7.13;;;2.07;;
3417;SDS011;68007;51.312;12.372;2023-04-03T04:41:53;7.73;;;2.37;;
3417;SDS011;68007;51.312;12.372;2023-04-03T04:44:20;5.70;;;2.37;;
3417;SDS011;68007;51.312;12.372;2023-04-03T04:46:48;5.73;;;1.77;;
3417;SDS011;68007;51.312;12.372;2023-04-03T04:49:15;11.40;;;2.47;;
3417;SDS011;68007;51.312;12.372;2023-04-03T04:51:43;6.10;;;2.00;;
3417;SDS011;68007;51.312;12.372;2023-04-03T04:54:10;6.40;;;2.20;;
3417;SDS011;68007;51.312;12.372;2023-04-03T04:56:38;3.70;;;2.13;;
3417;SDS011;68007;51.312;12.372;2023-04-03T04:59:07;16.50;;;2.10;;
3417;SDS011;68007;51.312;12.372;2023-04-03T05:01:34;7.10;;;1.83;;
3417;SDS011;68007;51.312;12.372;2023-04-03T05:04:02;10.17;;;2.10;;
3417;SDS011;68007;51.312;12.372;2023-04-03T05:06:30;5.20;;;2.07;;
3417;SDS011;68007;51.312;12.372;2023-04-03T05:08:58;4.13;;;2.23;;
3417;SDS011;68007;51.312;12.372;2023-04-03T05:11:26;13.63;;;2.60;;
3417;SDS011;68007;51.312;12.372;2023-04-03T05:13:53;4.17;;;1.93;;
3417;SDS011;68007;51.312;12.372;2023-04-03T05:16:22;6.53;;;2.10;;
3417;SDS011;68007;51.312;12.372;2023-04-03T05:18:51;3.97;;;2.43;;
3417;SDS011;68007;51.312;12.372;2023-04-03T05:21:18;7.20;;;2.00;;
3417;SDS011;68007;51.312;12.372;2023-04-03T05:23:48;3.37;;;1.70;;
3417;SDS011;68007;51.312;12.372;2023-04-03T05:26:16;5.87;;;1.80;;
3417;SDS011;68007;51.312;12.372;2023-04-03T05:28:43;9.40;;;2.40;;
3417;SDS011;68007;51.312;12.372;2023-04-03T05:31:11;9.97;;;2.30;;
3417;SDS011;68007;51.312;12.372;2023-04-03T05:33:41;5.87;;;1.67;;
3417;SDS011;68007;51.312;12.372;2023-04-03T05:36:09;6.00;;;2.00;;
3417;SDS011;68007;51.312;12.372;2023-04-03T05:38:36;5.63;;;1.97;;
3417;SDS011;68007;51.312;12.372;2023-04-03T05:41:04;9.07;;;2.30;;
3417;SDS011;68007;51.312;12.372;2023-04-03T05:43:31;9.40;;;2.60;;
3417;SDS011;68007;51.312;12.372;2023-04-03T05:46:00;5.40;;;2.30;;
3417;SDS011;68007;51.312;12.372;2023-04-03T05:48:27;5.93;;;2.00;;
3417;SDS011;68007;51.312;12.372;2023-04-03T05:50:56;11.00;;;3.00;;
3417;SDS011;68007;51.312;12.372;2023-04-03T05:53:27;4.00;;;1.83;;
3417;SDS011;68007;51.312;12.372;2023-04-03T05:55:58;9.73;;;1.70;;
3417;SDS011;68007;51.312;12.372;2023-04-03T05:58:25;4.63;;;1.90;;
3417;SDS011;68007;51.312;12.372;2023-04-03T06:00:53;7.93;;;1.60;;
3417;SDS011;68007;51.312;12.372;2023-04-03T06:03:20;5.47;;;2.60;;
3417;SDS011;68007;51.312;12.372;2023-04-03T06:05:48;8.67;;;1.90;;
3417;SDS011;68007;51.312;12.372;2023-04-03T06:08:17;2.50;;;1.70;;
3417;SDS011;68007;51.312;12.372;2023-04-03T06:10:45;5.73;;;1.77;;
3417;SDS011;68007;51.312;12.372;2023-04-03T06:13:13;6.13;;;2.07;;
3417;SDS011;68007;51.312;12.372;2023-04-03T06:15:41;4.93;;;1.87;;
3417;SDS011;68007;51.312;12.372;2023-04-03T06:18:08;8.30;;;2.07;;
3417;SDS011;68007;51.312;12.372;2023-04-03T06:20:36;4.17;;;1.90;;
3417;SDS011;68007;51.312;12.372;2023-04-03T06:23:03;6.10;;;1.57;;
3417;SDS011;68007;51.312;12.372;2023-04-03T06:25:32;4.03;;;1.70;;
3417;SDS011;68007;51.312;12.372;2023-04-03T06:28:00;8.87;;;1.93;;
3417;SDS011;68007;51.312;12.372;2023-04-03T06:30:27;9.37;;;2.20;;
3417;SDS011;68007;51.312;12.372;2023-04-03T06:32:55;3.50;;;1.77;;
3417;SDS011;68007;51.312;12.372;2023-04-03T06:35:22;6.13;;;1.70;;
3417;SDS011;68007;51.312;12.372;2023-04-03T06:37:51;7.20;;;2.23;;
3417;SDS011;68007;51.312;12.372;2023-04-03T06:40:19;4.90;;;2.20;;
3417;SDS011;68007;51.312;12.372;2023-04-03T06:42:50;4.40;;;1.60;;
3417;SDS011;68007;51.312;12.372;2023-04-03T06:45:18;6.00;;;1.57;;
3417;SDS011;68007;51.312;12.372;2023-04-03T06:47:46;9.50;;;1.70;;
3417;SDS011;68007;51.312;12.372;2023-04-03T06:50:13;5.80;;;1.60;;
3417;SDS011;68007;51.312;12.372;2023-04-03T06:52:41;9.00;;;2.80;;
3417;SDS011;68007;51.312;12.372;2023-04-03T06:55:09;3.77;;;1.60;;
3417;SDS011;68007;51.312;12.372;2023-04-03T06:57:37;7.80;;;1.80;;
3417;SDS011;68007;51.312;12.372;2023-04-03T07:00:06;4.03;;;1.87;;
3417;SDS011;68007;51.312;12.372;2023-04-03T07:02:35;4.93;;;2.13;;
3417;SDS011;68007;51.312;12.372;2023-04-03T07:05:03;10.27;;;1.63;;
3417;SDS011;68007;51.312;12.372;2023-04-03T07:07:31;8.70;;;2.07;;
3417;SDS011;68007;51.312;12.372;2023-04-03T07:09:59;2.70;;;1.40;;
3417;SDS011;68007;51.312;12.372;2023-04-03T07:12:27;5.13;;;1.70;;
3417;SDS011;68007;51.312;12.372;2023-04-03T07:14:54;5.40;;;1.87;;
3417;SDS011;68007;51.312;12.372;2023-04-03T07:17:23;2.13;;;1.50;;
3417;SDS011;68007;51.312;12.372;2023-04-03T07:19:51;2.20;;;1.50;;
3417;SDS011;68007;51.312;12.372;2023-04-03T07:22:18;7.93;;;1.73;;
3417;SDS011;68007;51.312;12.372;2023-04-03T07:24:46;3.00;;;1.50;;
3417;SDS011;68007;51.312;12.372;2023-04-03T07:27:14;2.00;;;1.40;;
3417;SDS011;68007;51.312;12.372;2023-04-03T07:29:41;8.50;;;1.50;;
3417;SDS011;68007;51.312;12.372;2023-04-03T07:32:10;4.03;;;1.93;;
3417;SDS011;68007;51.312;12.372;2023-04-03T07:34:39;4.90;;;1.50;;
3417;SDS011;68007;51.312;12.372;2023-04-03T07:37:06;4.20;;;1.83;;
3417;SDS011;68007;51.312;12.372;2023-04-03T07:39:34;3.93;;;1.83;;
3417;SDS011;68007;51.312;12.372;2023-04-03T07:42:02;8.73;;;1.90;;
3417;SDS011;68007;51.312;12.372;2023-04-03T07:44:30;5.23;;;1.40;;
3417;SDS011;68007;51.312;12.372;2023-04-03T07:46:58;3.17;;;1.43;;
3417;SDS011;68007;51.312;12.372;2023-04-03T07:49:25;4.10;;;1.60;;
3417;SDS011;68007;51.312;12.372;2023-04-03T07:51:54;6.70;;;1.33;;
3417;SDS011;68007;51.312;12.372;2023-04-03T07:54:22;2.40;;;1.30;;
3417;SDS011;68007;51.312;12.372;2023-04-03T07:56:49;7.57;;;1.33;;
3417;SDS011;68007;51.312;12.372;2023-04-03T07:59:17;3.47;;;1.57;;
3417;SDS011;68007;51.312;12.372;2023-04-03T08:01:44;6.13;;;1.43;;
3417;SDS011;68007;51.312;12.372;2023-04-03T08:04:12;3.50;;;1.40;;
3417;SDS011;68007;51.312;12.372;2023-04-03T08:06:39;5.40;;;1.70;;
3417;SDS011;68007;51.312;12.372;2023-04-03T08:09:08;2.77;;;1.63;;
3417;SDS011;68007;51.312;12.372;2023-04-03T08:11:38;2.33;;;1.20;;
3417;SDS011;68007;51.312;12.372;2023-04-03T08:14:05;3.80;;;1.53;;
3417;SDS011;68007;51.312;12.372;2023-04-03T08:16:33;3.23;;;1.37;;
3417;SDS011;68007;51.312;12.372;2023-04-03T08:19:01;8.60;;;1.50;;
3417;SDS011;68007;51.312;12.372;2023-04-03T08:21:28;3.90;;;1.77;;
3417;SDS011;68007;51.312;12.372;2023-04-03T08:23:56;2.03;;;1.50;;
3417;SDS011;68007;51.312;12.372;2023-04-03T08:26:25;6.67;;;1.77;;
3417;SDS011;68007;51.312;12.372;2023-04-03T08:28:53;9.43;;;2.10;;
3417;SDS011;68007;51.312;12.372;2023-04-03T08:31:20;5.97;;;1.63;;
3417;SDS011;68007;51.312;12.372;2023-04-03T08:33:48;3.57;;;1.60;;
3417;SDS011;68007;51.312;12.372;2023-04-03T08:36:17;3.87;;;1.60;;
3417;SDS011;68007;51.312;12.372;2023-04-03T08:38:47;4.33;;;1.90;;
3417;SDS011;68007;51.312;12.372;2023-04-03T08:41:16;8.27;;;2.33;;
3417;SDS011;68007;51.312;12.372;2023-04-03T08:43:59;3.17;;;2.00;;
3417;SDS011;68007;51.312;12.372;2023-04-03T08:46:36;5.00;;;1.93;;
3417;SDS011;68007;51.312;12.372;2023-04-03T08:49:16;5.70;;;1.93;;
3417;SDS011;68007;51.312;12.372;2023-04-03T08:51:48;2.63;;;1.17;;
3417;SDS011;68007;51.312;12.372;2023-04-03T08:54:21;6.93;;;1.40;;
3417;SDS011;68007;51.312;12.372;2023-04-03T08:56:56;3.33;;;1.50;;
3417;SDS011;68007;51.312;12.372;2023-04-03T08:59:29;4.13;;;1.43;;
3417;SDS011;68007;51.312;12.372;2023-04-03T09:02:01;3.53;;;1.33;;
3417;SDS011;68007;51.312;12.372;2023-04-03T09:04:32;3.67;;;1.67;;
3417;SDS011;68007;51.312;12.372;2023-04-03T09:07:02;5.33;;;1.37;;
3417;SDS011;68007;51.312;12.372;2023-04-03T09:09:40;3.50;;;1.60;;
3417;SDS011;68007;51.312;12.372;2023-04-03T09:12:14;6.23;;;1.50;;
3417;SDS011;68007;51.312;12.372;2023-04-03T09:14:49;5.30;;;1.67;;
3417;SDS011;68007;51.312;12.372;2023-04-03T09:17:29;6.43;;;1.87;;
3417;SDS011;68007;51.312;12.372;2023-04-03T09:20:07;6.63;;;1.83;;
3417;SDS011;68007;51.312;12.372;2023-04-03T09:22:44;3.23;;;2.13;;
3417;SDS011;68007;51.312;12.372;2023-04-03T09:25:12;11.17;;;2.30;;
3417;SDS011;68007;51.312;12.372;2023-04-03T09:27:42;4.53;;;2.50;;
3417;SDS011;68007;51.312;12.372;2023-04-03T09:30:14;2.77;;;1.33;;
3417;SDS011;68007;51.312;12.372;2023-04-03T09:32:44;3.97;;;1.50;;
3417;SDS011;68007;51.312;12.372;2023-04-03T09:35:22;3.73;;;1.63;;
3417;SDS011;68007;51.312;12.372;2023-04-03T09:37:52;3.67;;;1.60;;
3417;SDS011;68007;51.312;12.372;2023-04-03T09:40:35;14.37;;;2.20;;
3417;SDS011;68007;51.312;12.372;2023-04-03T09:43:24;8.20;;;2.67;;
3417;SDS011;68007;51.312;12.372;2023-04-03T09:45:56;6.83;;;2.43;;
3417;SDS011;68007;51.312;12.372;2023-04-03T09:48:49;5.73;;;2.40;;
3417;SDS011;68007;51.312;12.372;2023-04-03T09:51:17;5.27;;;1.60;;
3417;SDS011;68007;51.312;12.372;2023-04-03T09:53:45;5.73;;;1.70;;
3417;SDS011;68007;51.312;12.372;2023-04-03T09:56:20;4.30;;;1.80;;
3417;SDS011;68007;51.312;12.372;2023-04-03T09:58:50;3.73;;;2.17;;
3417;SDS011;68007;51.312;12.372;2023-04-03T10:01:27;2.50;;;1.33;;
3417;SDS011;68007;51.312;12.372;2023-04-03T10:04:03;3.67;;;1.53;;
3417;SDS011;68007;51.312;12.372;2023-04-03T10:06:36;3.87;;;1.63;;
3417;SDS011;68007;51.312;12.372;2023-04-03T10:09:16;7.37;;;1.90;;
3417;SDS011;68007;51.312;12.372;2023-04-03T10:11:59;3.00;;;1.40;;
3417;SDS011;68007;51.312;12.372;2023-04-03T10:14:30;4.10;;;1.77;;
3417;SDS011;68007;51.312;12.372;2023-04-03T10:17:05;14.63;;;1.97;;
3417;SDS011;68007;51.312;12.372;2023-04-03T10:19:43;3.40;;;1.60;;
3417;SDS011;68007;51.312;12.372;2023-04-03T10:22:18;12.73;;;1.50;;
3417;SDS011;68007;51.312;12.372;2023-04-03T10:24:51;1.93;;;1.30;;
3417;SDS011;68007;51.312;12.372;2023-04-03T10:27:28;5.20;;;1.40;;
3417;SDS011;68007;51.312;12.372;2023-04-03T10:30:09;3.00;;;1.40;;
3417;SDS011;68007;51.312;12.372;2023-04-03T10:32:54;5.00;;;1.50;;
3417;SDS011;68007;51.312;12.372;2023-04-03T10:35:31;5.50;;;2.00;;
3417;SDS011;68007;51.312;12.372;2023-04-03T10:38:08;3.00;;;1.43;;
3417;SDS011;68007;51.312;12.372;2023-04-03T10:40:45;3.20;;;1.20;;
3417;SDS011;68007;51.312;12.372;2023-04-03T10:43:21;8.10;;;1.57;;
3417;SDS011;68007;51.312;12.372;2023-04-03T10:45:57;4.83;;;1.77;;
3417;SDS011;68007;51.312;12.372;2023-04-03T10:48:39;5.40;;;1.60;;
3417;SDS011;68007;51.312;12.372;2023-04-03T10:51:18;3.70;;;1.90;;
3417;SDS011;68007;51.312;12.372;2023-04-03T10:53:54;9.83;;;1.73;;
3417;SDS011;68007;51.312;12.372;2023-04-03T10:56:31;3.40;;;1.80;;
3417;SDS011;68007;51.312;12.372;2023-04-03T10:59:08;8.17;;;2.00;;
3417;SDS011;68007;51.312;12.372;2023-04-03T11:01:46;4.93;;;1.30;;
3417;SDS011;68007;51.312;12.372;2023-04-03T11:04:20;5.60;;;1.53;;
3417;SDS011;68007;51.312;12.372;2023-04-03T11:06:51;3.13;;;1.87;;
3417;SDS011;68007;51.312;12.372;2023-04-03T11:09:25;7.93;;;2.30;;
3417;SDS011;68007;51.312;12.372;2023-04-03T11:11:55;6.00;;;1.90;;
3417;SDS011;68007;51.312;12.372;2023-04-03T11:14:29;3.37;;;1.90;;
3417;SDS011;68007;51.312;12.372;2023-04-03T11:17:05;2.90;;;1.60;;
3417;SDS011;68007;51.312;12.372;2023-04-03T11:19:44;4.10;;;1.60;;
3417;SDS011;68007;51.312;12.372;2023-04-03T11:22:16;5.27;;;1.70;;
3417;SDS011;68007;51.312;12.372;2023-04-03T11:24:53;3.43;;;1.67;;
3417;SDS011;68007;51.312;12.372;2023-04-03T11:27:30;8.60;;;1.60;;
3417;SDS011;68007;51.312;12.372;2023-04-03T11:30:06;3.77;;;1.40;;
3417;SDS011;68007;51.312;12.372;2023-04-03T11:32:42;4.77;;;1.70;;
3417;SDS011;68007;51.312;12.372;2023-04-03T11:35:25;4.07;;;1.80;;
3417;SDS011;68007;51.312;12.372;2023-04-03T11:37:54;4.23;;;1.73;;
3417;SDS011;68007;51.312;12.372;2023-04-03T11:40:24;7.07;;;1.73;;
3417;SDS011;68007;51.312;12.372;2023-04-03T11:43:02;7.70;;;2.50;;
3417;SDS011;68007;51.312;12.372;2023-04-03T11:45:34;6.87;;;1.47;;
3417;SDS011;68007;51.312;12.372;2023-04-03T11:48:05;7.70;;;1.60;;
3417;SDS011;68007;51.312;12.372;2023-04-03T11:50:54;6.70;;;1.60;;
3417;SDS011;68007;51.312;12.372;2023-04-03T11:53:26;4.33;;;1.70;;
3417;SDS011;68007;51.312;12.372;2023-04-03T11:55:57;9.13;;;1.70;;
3417;SDS011;68007;51.312;12.372;2023-04-03T11:58:27;6.70;;;1.50;;
3417;SDS011;68007;51.312;12.372;2023-04-03T12:01:06;2.97;;;1.20;;
3417;SDS011;68007;51.312;12.372;2023-04-03T12:12:56;2.63;;;1.57;;
3417;SDS011;68007;51.312;12.372;2023-04-03T12:15:37;4.77;;;1.97;;
3417;SDS011;68007;51.312;12.372;2023-04-03T12:21:11;2.60;;;1.93;;
3417;SDS011;68007;51.312;12.372;2023-04-03T12:26:50;4.93;;;1.37;;
3417;SDS011;68007;51.312;12.372;2023-04-03T12:29:29;3.83;;;1.43;;
3417;SDS011;68007;51.312;12.372;2023-04-03T12:32:06;5.10;;;2.00;;
3417;SDS011;68007;51.312;12.372;2023-04-03T12:34:53;6.40;;;1.70;;
3417;SDS011;68007;51.312;12.372;2023-04-03T12:37:38;5.67;;;2.33;;
3417;SDS011;68007;51.312;12.372;2023-04-03T12:40:15;5.17;;;2.17;;
3417;SDS011;68007;51.312;12.372;2023-04-03T12:43:02;4.17;;;1.50;;
3417;SDS011;68007;51.312;12.372;2023-04-03T12:45:45;8.60;;;2.50;;
3417;SDS011;68007;51.312;12.372;2023-04-03T12:48:20;5.60;;;1.83;;
3417;SDS011;68007;51.312;12.372;2023-04-03T12:50:52;7.77;;;2.63;;
3417;SDS011;68007;51.312;12.372;2023-04-03T12:53:21;4.87;;;1.80;;
3417;SDS011;68007;51.312;12.372;2023-04-03T12:55:53;3.50;;;1.50;;
3417;SDS011;68007;51.312;12.372;2023-04-03T12:58:23;4.10;;;1.70;;
3417;SDS011;68007;51.312;12.372;2023-04-03T13:01:01;3.60;;;1.70;;
3417;SDS011;68007;51.312;12.372;2023-04-03T13:03:30;5.43;;;1.70;;
3417;SDS011;68007;51.312;12.372;2023-04-03T13:05:59;6.00;;;1.63;;
3417;SDS011;68007;51.312;12.372;2023-04-03T13:08:29;5.93;;;1.83;;
3417;SDS011;68007;51.312;12.372;2023-04-03T13:10:58;2.13;;;1.53;;
3417;SDS011;68007;51.312;12.372;2023-04-03T13:13:29;3.10;;;1.40;;
3417;SDS011;68007;51.312;12.372;2023-04-03T13:15:57;4.33;;;1.40;;
3417;SDS011;68007;51.312;12.372;2023-04-03T13:18:29;3.53;;;1.50;;
3417;SDS011;68007;51.312;12.372;2023-04-03T13:20:59;2.73;;;1.67;;
3417;SDS011;68007;51.312;12.372;2023-04-03T13:23:30;3.87;;;2.20;;
3417;SDS011;68007;51.312;12.372;2023-04-03T13:25:58;5.13;;;1.70;;
3417;SDS011;68007;51.312;12.372;2023-04-03T13:28:31;5.03;;;1.80;;
3417;SDS011;68007;51.312;12.372;2023-04-03T13:31:01;6.87;;;2.03;;
3417;SDS011;68007;51.312;12.372;2023-04-03T13:33:32;6.13;;;1.60;;
3417;SDS011;68007;51.312;12.372;2023-04-03T13:36:04;4.50;;;1.63;;
3417;SDS011;68007;51.312;12.372;2023-04-03T13:38:34;3.80;;;1.50;;
3417;SDS011;68007;51.312;12.372;2023-04-03T13:41:03;6.33;;;1.80;;
3417;SDS011;68007;51.312;12.372;2023-04-03T13:43:35;3.27;;;1.87;;
3417;SDS011;68007;51.312;12.372;2023-04-03T13:46:21;3.33;;;1.60;;
3417;SDS011;68007;51.312;12.372;2023-04-03T13:48:53;6.00;;;1.77;;
3417;SDS011;68007;51.312;12.372;2023-04-03T13:51:22;2.60;;;1.70;;
3417;SDS011;68007;51.312;12.372;2023-04-03T13:53:53;5.00;;;2.10;;
3417;SDS011;68007;51.312;12.372;2023-04-03T13:56:24;2.43;;;1.50;;
3417;SDS011;68007;51.312;12.372;2023-04-03T13:59:02;5.00;;;1.50;;
3417;SDS011;68007;51.312;12.372;2023-04-03T14:01:33;4.60;;;1.67;;
3417;SDS011;68007;51.312;12.372;2023-04-03T14:04:15;2.40;;;1.47;;
3417;SDS011;68007;51.312;12.372;2023-04-03T14:06:46;4.77;;;2.07;;
3417;SDS011;68007;51.312;12.372;2023-04-03T14:09:14;3.20;;;1.40;;
3417;SDS011;68007;51.312;12.372;2023-04-03T14:11:42;7.13;;;2.03;;
3417;SDS011;68007;51.312;12.372;2023-04-03T14:14:15;4.90;;;1.70;;
3417;SDS011;68007;51.312;12.372;2023-04-03T14:16:45;2.17;;;1.73;;
3417;SDS011;68007;51.312;12.372;2023-04-03T14:19:17;3.03;;;1.80;;
3417;SDS011;68007;51.312;12.372;2023-04-03T14:21:46;2.50;;;1.60;;
3417;SDS011;68007;51.312;12.372;2023-04-03T14:24:14;5.10;;;1.83;;
3417;SDS011;68007;51.312;12.372;2023-04-03T14:26:42;4.03;;;1.77;;
3417;SDS011;68007;51.312;12.372;2023-04-03T14:29:11;6.17;;;3.67;;
3417;SDS011;68007;51.312;12.372;2023-04-03T14:31:41;12.20;;;4.97;;
3417;SDS011;68007;51.312;12.372;2023-04-03T14:34:09;9.93;;;4.63;;
3417;SDS011;68007;51.312;12.372;2023-04-03T14:36:38;12.63;;;6.23;;
3417;SDS011;68007;51.312;12.372;2023-04-03T14:39:07;13.63;;;5.87;;
3417;SDS011;68007;51.312;12.372;2023-04-03T14:41:37;16.93;;;8.00;;
3417;SDS011;68007;51.312;12.372;2023-04-03T14:44:05;17.23;;;7.47;;
3417;SDS011;68007;51.312;12.372;2023-04-03T14:46:34;19.07;;;7.87;;
3417;SDS011;68007;51.312;12.372;2023-04-03T14:49:05;25.07;;;10.03;;
3417;SDS011;68007;51.312;12.372;2023-04-03T14:51:41;22.73;;;9.50;;
3417;SDS011;68007;51.312;12.372;2023-04-03T14:54:11;24.90;;;9.10;;
3417;SDS011;68007;51.312;12.372;2023-04-03T14:56:41;17.90;;;6.07;;
3417;SDS011;68007;51.312;12.372;2023-04-03T14:59:11;13.43;;;5.97;;
3417;SDS011;68007;51.312;12.372;2023-04-03T15:01:40;14.27;;;5.20;;
3417;SDS011;68007;51.312;12.372;2023-04-03T15:04:11;8.40;;;5.20;;
3417;SDS011;68007;51.312;12.372;2023-04-03T15:06:40;7.23;;;4.00;;
3417;SDS011;68007;51.312;12.372;2023-04-03T15:09:11;4.63;;;3.20;;
3417;SDS011;68007;51.312;12.372;2023-04-03T15:11:46;8.57;;;2.77;;
3417;SDS011;68007;51.312;12.372;2023-04-03T15:14:13;5.47;;;2.17;;
3417;SDS011;68007;51.312;12.372;2023-04-03T15:16:41;4.67;;;2.00;;
3417;SDS011;68007;51.312;12.372;2023-04-03T15:19:09;3.57;;;2.17;;
3417;SDS011;68007;51.312;12.372;2023-04-03T15:21:38;4.07;;;1.57;;
3417;SDS011;68007;51.312;12.372;2023-04-03T15:24:06;3.93;;;1.90;;